Time;durP1;ratioP1;P1;durP2;ratioP2;P2;SDS_P1;SDS_P2;PMS_P1;PMS_P2;Temp;Humidity;BMP_temperature;BMP_pressure;BME280_temperature;BME280_humidity;BME280_pressure;Samples;Min_cycle;Max_cycle;Signal;HPM_P1;HPM_P2
2024/03/29 00:02:48;;;;;;;0.90;0.90;;;;;;;8.45;88.16;98744.69;177460;1255;46136;-77
2024/03/29 00:06:51;;;;;;;1.20;1.00;;;;;;;8.37;88.76;98749.88;177170;1255;59506;-77
2024/03/29 00:10:54;;;;;;;6.10;1.40;;;;;;;8.33;89.25;98759.49;178350;1256;46176;-80
2024/03/29 00:14:57;;;;;;;2.00;1.40;;;;;;;8.25;89.38;98772.60;176722;1256;45963;-79
2024/03/29 00:19:00;;;;;;;1.90;1.30;;;;;;;8.16;89.99;98784.25;177997;1256;46253;-79
2024/03/29 00:23:03;;;;;;;2.00;1.80;;;;;;;8.07;90.44;98793.14;177424;1255;45828;-80
2024/03/29 00:27:06;;;;;;;0.80;0.80;;;;;;;8.04;90.68;98804.27;177201;1256;60074;-79
2024/03/29 00:31:09;;;;;;;2.10;1.20;;;;;;;8.01;91.15;98811.42;177023;1255;46009;-80
2024/03/29 00:35:14;;;;;;;1.20;1.10;;;;;;;7.97;91.39;98819.48;177206;1256;46150;-79
2024/03/29 00:39:16;;;;;;;1.40;1.00;;;;;;;8.00;91.34;98829.16;177340;1256;45987;-80
2024/03/29 00:43:19;;;;;;;1.30;1.20;;;;;;;8.02;91.28;98846.30;177539;1256;46072;-79
2024/03/29 00:47:22;;;;;;;1.90;0.80;;;;;;;8.02;91.28;98850.63;176804;1256;59846;-79
2024/03/29 00:51:25;;;;;;;2.90;1.40;;;;;;;8.04;91.24;98857.38;176682;1256;46058;-80
2024/03/29 00:55:31;;;;;;;4.40;2.30;;;;;;;8.02;91.17;98867.80;177050;1258;46186;-79
2024/03/29 00:59:34;;;;;;;6.30;2.80;;;;;;;8.03;91.07;98873.86;177160;1256;46679;-81
2024/03/29 01:03:37;;;;;;;5.40;2.30;;;;;;;8.05;91.27;98882.57;177096;1255;46018;-80
2024/03/29 01:07:41;;;;;;;9.40;6.00;;;;;;;8.03;91.72;98889.23;176823;1256;59418;-79
2024/03/29 01:11:43;;;;;;;14.70;6.90;;;;;;;7.95;92.75;98895.98;176770;1256;46114;-79
2024/03/29 01:15:46;;;;;;;9.80;6.00;;;;;;;7.85;93.33;98895.66;177089;1256;45924;-78
2024/03/29 01:19:49;;;;;;;8.70;5.00;;;;;;;7.74;94.30;98898.61;177113;1260;46099;-78
2024/03/29 01:23:52;;;;;;;8.50;5.60;;;;;;;7.68;94.95;98889.10;176752;1256;46285;-78
2024/03/29 01:27:55;;;;;;;6.10;3.70;;;;;;;7.67;95.04;98893.26;176252;1259;58158;-78
2024/03/29 01:31:58;;;;;;;5.50;4.00;;;;;;;7.60;95.74;98896.16;177159;1256;46080;-78
2024/03/29 01:36:01;;;;;;;3.70;3.10;;;;;;;7.56;95.86;98895.27;177542;1256;45969;-78
2024/03/29 01:40:05;;;;;;;3.00;2.40;;;;;;;7.55;95.86;98895.68;177766;1256;46095;-79
2024/03/29 01:44:08;;;;;;;6.60;3.90;;;;;;;7.54;96.18;98897.11;177191;1260;45957;-79
2024/03/29 01:48:11;;;;;;;6.60;4.10;;;;;;;7.51;96.49;98890.67;177245;1255;58807;-79
2024/03/29 01:52:16;;;;;;;3.40;3.00;;;;;;;7.49;96.88;98892.02;177035;1256;46024;-79
2024/03/29 01:56:21;;;;;;;4.70;4.10;;;;;;;7.49;96.96;98884.48;178700;1256;46083;-79
2024/03/29 02:00:26;;;;;;;2.50;2.30;;;;;;;7.42;97.34;98884.89;180462;1256;44802;-79
2024/03/29 02:04:29;;;;;;;5.20;2.40;;;;;;;7.33;98.05;98893.50;177079;1256;46014;-79
2024/03/29 02:08:34;;;;;;;3.60;2.70;;;;;;;7.25;97.84;98892.44;176733;1256;58332;-79
2024/03/29 02:12:36;;;;;;;3.80;3.10;;;;;;;7.20;97.64;98899.92;177386;1256;46088;-79
2024/03/29 02:16:39;;;;;;;2.50;2.30;;;;;;;7.19;97.40;98906.74;177052;1259;46202;-79
2024/03/29 02:20:42;;;;;;;2.50;2.30;;;;;;;7.18;97.27;98916.77;176894;1260;45983;-79
2024/03/29 02:24:45;;;;;;;3.90;2.00;;;;;;;7.16;97.37;98923.94;177786;1257;45889;-79
2024/03/29 02:28:48;;;;;;;4.40;2.90;;;;;;;7.15;97.27;98935.30;176865;1256;59653;-79
2024/03/29 02:32:51;;;;;;;3.30;2.40;;;;;;;7.17;97.14;98943.20;177167;1260;46079;-79
2024/03/29 02:36:54;;;;;;;4.20;2.20;;;;;;;7.22;96.58;98957.91;177182;1260;46208;-79
2024/03/29 02:40:57;;;;;;;2.40;2.20;;;;;;;7.31;95.74;98955.42;176771;1256;46071;-79
2024/03/29 02:45:00;;;;;;;4.50;1.70;;;;;;;7.37;95.33;98950.45;176962;1260;46515;-79
2024/03/29 02:49:03;;;;;;;1.60;1.50;;;;;;;7.40;94.73;98948.45;176908;1256;57998;-79
2024/03/29 02:53:06;;;;;;;4.30;2.50;;;;;;;7.42;94.35;98948.77;177138;1256;46081;-80
2024/03/29 02:57:09;;;;;;;5.20;3.70;;;;;;;7.41;93.90;98949.70;177256;1260;44799;-79
2024/03/29 03:01:12;;;;;;;5.40;2.50;;;;;;;7.36;93.90;98949.19;176854;1256;46038;-80
2024/03/29 03:05:15;;;;;;;3.80;2.80;;;;;;;7.35;93.85;98948.37;176941;1256;46105;-80
2024/03/29 03:13:40;;;;;;;4.70;2.30;;;;;;;7.37;93.31;98950.83;177777;1256;45953;-79
2024/03/29 03:17:43;;;;;;;2.70;1.70;;;;;;;7.35;93.41;98950.49;176938;1256;46110;-80
2024/03/29 03:21:46;;;;;;;2.70;2.40;;;;;;;7.32;93.28;98953.25;177513;1256;46054;-80
2024/03/29 03:25:59;;;;;;;3.10;1.90;;;;;;;7.26;93.07;98956.36;177672;1256;46067;-55
2024/03/29 03:30:02;;;;;;;2.90;2.20;;;;;;;7.22;93.20;98947.92;177083;1258;58324;-78
2024/03/29 03:34:05;;;;;;;2.40;2.00;;;;;;;7.19;92.92;98944.98;177152;1262;46459;-79
2024/03/29 03:38:09;;;;;;;2.90;2.20;;;;;;;7.15;92.54;98952.53;177371;1259;46126;-78
2024/03/29 03:42:11;;;;;;;1.80;1.60;;;;;;;7.12;92.44;98963.55;177580;1258;46222;-79
2024/03/29 03:46:14;;;;;;;2.70;1.30;;;;;;;7.09;91.81;98967.23;178061;1258;46157;-79
2024/03/29 03:50:17;;;;;;;2.70;1.10;;;;;;;7.08;91.49;98974.35;178239;1258;59648;-78
2024/03/29 03:54:20;;;;;;;2.90;1.60;;;;;;;7.11;91.17;98995.22;177510;1258;46842;-79
2024/03/29 03:58:23;;;;;;;1.60;1.50;;;;;;;7.12;90.92;99017.05;177007;1259;46129;-78
2024/03/29 04:02:25;;;;;;;1.40;1.30;;;;;;;7.08;91.52;99009.75;176714;1259;46213;-78
2024/03/29 04:06:28;;;;;;;2.60;1.90;;;;;;;6.97;92.54;99003.45;176539;1259;46004;-79
2024/03/29 04:10:31;;;;;;;5.60;2.00;;;;;;;6.90;93.13;99000.55;176595;1259;57589;-79
2024/03/29 04:14:33;;;;;;;3.70;2.30;;;;;;;6.80;93.27;99003.73;177259;1259;46022;-79
2024/03/29 04:18:36;;;;;;;4.50;2.80;;;;;;;6.72;92.81;99008.11;176715;1258;46106;-77
2024/03/29 04:22:40;;;;;;;1.60;1.20;;;;;;;6.61;93.40;99004.67;177001;1258;46487;-77
2024/03/29 04:26:44;;;;;;;4.40;2.30;;;;;;;6.37;95.18;98994.90;176909;1259;46000;-79
2024/03/29 04:30:58;;;;;;;4.20;2.10;;;;;;;6.22;95.61;99001.92;176703;1257;57953;-78
2024/03/29 04:35:01;;;;;;;2.90;1.90;;;;;;;6.16;96.27;99012.64;176706;1258;46164;-79
2024/03/29 04:39:04;;;;;;;2.70;2.30;;;;;;;6.20;96.82;99020.81;176540;1258;46472;-77
2024/03/29 04:43:07;;;;;;;2.70;2.50;;;;;;;6.27;96.87;99021.20;177057;1262;46112;-79
2024/03/29 04:47:10;;;;;;;7.30;2.20;;;;;;;6.32;97.06;99025.23;176700;1259;46070;-78
2024/03/29 04:51:13;;;;;;;3.10;2.60;;;;;;;6.34;97.70;99022.63;176651;1259;60006;-78
2024/03/29 04:55:16;;;;;;;5.40;3.00;;;;;;;6.30;99.06;99026.29;176796;1257;45997;-79
2024/03/29 04:59:20;;;;;;;3.60;2.30;;;;;;;6.38;99.43;99025.19;176910;1257;46094;-79
2024/03/29 05:03:23;;;;;;;2.50;2.30;;;;;;;6.38;100.00;99030.38;177026;1257;46160;-79
2024/03/29 05:07:26;;;;;;;5.30;2.10;;;;;;;6.88;98.50;99029.27;177439;1257;46012;-78
2024/03/29 05:11:29;;;;;;;3.50;3.10;;;;;;;7.41;95.75;99021.52;177252;1259;58714;-77
2024/03/29 05:15:32;;;;;;;3.90;3.60;;;;;;;7.94;92.52;99034.25;177567;1254;46115;-80
2024/03/29 05:19:35;;;;;;;4.00;2.50;;;;;;;8.49;89.31;99017.60;178114;1256;46019;-82
2024/03/29 05:23:38;;;;;;;5.00;2.80;;;;;;;8.97;86.41;99012.98;177924;1254;46564;-84
2024/03/29 05:27:41;;;;;;;2.50;2.20;;;;;;;9.55;83.27;99021.65;177868;1254;46128;-83
2024/03/29 05:31:44;;;;;;;2.70;2.50;;;;;;;9.98;80.88;99017.60;177850;1254;58363;-78
2024/03/29 05:35:47;;;;;;;3.20;2.00;;;;;;;10.44;78.55;99016.70;177887;1255;46135;-81
2024/03/29 05:39:51;;;;;;;2.40;1.70;;;;;;;10.78;76.86;99011.06;177767;1254;46124;-82
2024/03/29 05:43:54;;;;;;;3.40;1.90;;;;;;;10.88;75.35;99019.39;177073;1254;45994;-82
2024/03/29 05:47:58;;;;;;;2.70;1.80;;;;;;;11.09;75.11;99025.60;178716;1254;45970;-83
2024/03/29 05:52:01;;;;;;;4.10;2.80;;;;;;;11.28;74.17;99024.30;177234;1254;58275;-82
2024/03/29 05:56:05;;;;;;;3.20;2.00;;;;;;;11.47;73.19;99019.34;178124;1257;193725;-82
2024/03/29 06:00:11;;;;;;;2.10;1.50;;;;;;;11.56;72.72;99017.52;178439;1255;45955;-81
2024/03/29 06:04:18;;;;;;;3.30;2.80;;;;;;;11.73;72.65;99021.55;177222;1258;46486;-82
2024/03/29 06:08:23;;;;;;;4.60;2.70;;;;;;;11.85;72.47;99026.19;177777;1256;45971;-81
2024/03/29 06:12:26;;;;;;;2.90;1.80;;;;;;;11.87;71.63;99031.09;177751;1255;57764;-81
2024/03/29 06:20:51;;;;;;;1.50;1.10;;;;;;;12.02;71.45;99022.92;177523;1258;46024;-82
2024/03/29 06:24:53;;;;;;;2.00;1.00;;;;;;;12.00;71.40;99012.33;177485;1254;46192;-81
2024/03/29 06:28:56;;;;;;;1.90;1.60;;;;;;;11.89;71.62;99019.17;177562;1255;46093;-82
2024/03/29 06:33:02;;;;;;;2.70;1.70;;;;;;;11.96;72.06;99024.46;178676;1254;59206;-82
2024/03/29 06:37:05;;;;;;;3.60;1.30;;;;;;;12.04;72.49;99024.52;178041;1257;46179;-82
2024/03/29 06:41:09;;;;;;;7.00;2.00;;;;;;;12.14;71.45;99018.86;178264;1254;45967;-78
2024/03/29 06:45:11;;;;;;;5.80;1.90;;;;;;;12.20;71.51;99010.02;177769;1256;46105;-80
2024/03/29 06:49:15;;;;;;;4.40;1.30;;;;;;;12.37;71.45;99016.73;177422;1257;46106;-82
2024/03/29 06:53:18;;;;;;;4.20;1.80;;;;;;;12.44;70.82;99016.48;177581;1254;61071;-81
2024/03/29 06:57:25;;;;;;;2.30;1.10;;;;;;;12.29;70.60;99023.95;177073;1259;46198;-81
2024/03/29 07:01:28;;;;;;;2.90;1.70;;;;;;;12.22;71.32;99027.06;177717;1255;45110;-81
2024/03/29 07:05:31;;;;;;;3.00;1.50;;;;;;;12.16;71.34;99030.57;177642;1255;45990;-81
2024/03/29 07:09:33;;;;;;;2.20;1.20;;;;;;;12.09;71.94;99034.00;176833;1257;45956;-81
2024/03/29 07:13:36;;;;;;;3.70;1.20;;;;;;;12.04;71.98;99045.45;177127;1258;57419;-81
2024/03/29 07:17:40;;;;;;;2.40;1.40;;;;;;;12.03;72.36;99048.95;178358;1254;46023;-81
2024/03/29 07:21:43;;;;;;;2.70;0.90;;;;;;;11.98;72.13;99051.05;178328;1257;45952;-81
2024/03/29 07:26:00;;;;;;;3.40;1.00;;;;;;;11.97;72.89;99059.66;178360;1254;44077;-80
2024/03/29 07:30:04;;;;;;;1.80;1.10;;;;;;;12.00;72.32;99067.89;178189;1254;45839;-82
2024/03/29 07:34:07;;;;;;;5.80;1.00;;;;;;;12.00;71.55;99056.40;178361;1254;59391;-81
2024/03/29 07:38:10;;;;;;;2.50;0.90;;;;;;;12.05;71.42;99058.50;178985;1254;46112;-81
2024/03/29 07:42:13;;;;;;;9.10;1.20;;;;;;;12.13;71.71;99068.65;178299;1255;46045;-82
2024/03/29 07:46:15;;;;;;;15.00;1.70;;;;;;;12.22;71.29;99079.14;178288;1258;46016;-81
2024/03/29 07:50:19;;;;;;;6.50;1.10;;;;;;;12.31;70.78;99089.55;178082;1256;45972;-82
2024/03/29 07:54:22;;;;;;;2.40;1.20;;;;;;;12.46;72.28;99095.34;177969;1255;59429;-79
2024/03/29 07:58:25;;;;;;;1.50;0.60;;;;;;;12.50;70.46;99097.08;177828;1254;46068;-82
2024/03/29 08:02:30;;;;;;;1.30;0.80;;;;;;;12.50;69.24;99100.52;177699;1257;45971;-83
2024/03/29 08:06:33;;;;;;;1.90;0.90;;;;;;;12.50;68.96;99097.44;177954;1258;46205;-81
2024/03/29 08:10:37;;;;;;;4.70;0.80;;;;;;;12.58;68.40;99108.47;177948;1257;45974;-82
2024/03/29 08:14:40;;;;;;;0.80;0.70;;;;;;;12.62;67.51;99116.84;177768;1255;59602;-80
2024/03/29 08:18:45;;;;;;;9.50;1.80;;;;;;;12.72;67.78;99124.44;177804;1254;46468;-82
2024/03/29 08:22:48;;;;;;;6.30;1.10;;;;;;;12.89;68.24;99122.74;178488;1254;46460;-81
2024/03/29 08:26:51;;;;;;;2.50;1.00;;;;;;;13.09;67.13;99126.92;178392;1255;46103;-81
2024/03/29 08:30:58;;;;;;;1.60;0.90;;;;;;;13.27;65.92;99121.45;179396;1257;46054;-82
2024/03/29 08:35:01;;;;;;;2.90;1.30;;;;;;;13.45;66.11;99112.88;177160;1257;58549;-82
2024/03/29 08:39:04;;;;;;;8.20;1.70;;;;;;;13.71;67.51;99115.08;178053;1257;45996;-81
2024/03/29 08:43:07;;;;;;;7.00;1.50;;;;;;;14.01;65.41;99115.81;178541;1256;46065;-82
2024/03/29 08:47:10;;;;;;;4.70;1.50;;;;;;;14.25;64.55;99111.48;177928;1257;45997;-81
2024/03/29 08:51:14;;;;;;;4.70;1.10;;;;;;;14.44;63.43;99105.15;178132;1256;45941;-82
2024/03/29 08:55:17;;;;;;;5.80;1.20;;;;;;;14.56;60.86;99104.80;178275;1257;58226;-83
2024/03/29 08:59:20;;;;;;;2.00;0.80;;;;;;;14.61;59.13;99093.15;177918;1257;46159;-82
2024/03/29 09:03:24;;;;;;;2.90;1.00;;;;;;;14.67;58.55;99100.16;178180;1257;46093;-82
2024/03/29 09:07:28;;;;;;;2.90;0.80;;;;;;;14.73;59.11;99095.41;178013;1259;46464;-83
2024/03/29 09:11:31;;;;;;;1.50;0.80;;;;;;;14.76;58.91;99084.38;178172;1258;46369;-83
2024/03/29 09:15:34;;;;;;;1.20;0.70;;;;;;;14.94;60.16;99090.02;177853;1257;59218;-82
2024/03/29 09:19:37;;;;;;;1.50;0.50;;;;;;;15.19;58.87;99086.60;178342;1256;46099;-83
2024/03/29 09:23:41;;;;;;;1.70;0.80;;;;;;;15.40;58.37;99082.62;177753;1259;46099;-79
2024/03/29 09:27:48;;;;;;;3.20;1.30;;;;;;;15.61;57.09;99083.52;177637;1255;46086;-84
2024/03/29 09:31:51;;;;;;;9.40;0.80;;;;;;;15.86;56.97;99077.02;177821;1257;45977;-83
2024/03/29 09:35:55;;;;;;;6.70;0.50;;;;;;;16.04;56.21;99077.16;177920;1255;59641;-84
2024/03/29 09:39:57;;;;;;;4.50;1.20;;;;;;;16.15;51.45;99074.52;178180;1257;46181;-83
2024/03/29 09:44:02;;;;;;;2.10;0.90;;;;;;;16.31;51.00;99078.30;177653;1254;46119;-83
2024/03/29 09:48:08;;;;;;;1.80;1.00;;;;;;;16.47;51.49;99074.56;178564;1258;46050;-85
2024/03/29 09:52:12;;;;;;;;;;;;;;;16.68;51.58;99071.16;180117;1255;45334;-82
2024/03/29 09:56:15;;;;;;;2.50;0.50;;;;;;;16.85;49.76;99069.09;178080;1254;57869;-84
2024/03/29 10:00:18;;;;;;;3.30;1.00;;;;;;;16.98;48.94;99077.45;178698;1254;46178;-83
2024/03/29 10:04:24;;;;;;;1.30;0.40;;;;;;;17.06;49.00;99075.73;178638;1255;44649;-83
2024/03/29 10:08:29;;;;;;;0.90;0.40;;;;;;;17.15;47.89;99068.50;178701;1256;46073;-84
2024/03/29 10:12:32;;;;;;;1.30;0.60;;;;;;;17.20;47.62;99064.10;179190;1259;46100;-83
2024/03/29 10:16:35;;;;;;;1.80;0.50;;;;;;;17.10;46.59;99056.74;178861;1255;60118;-84
2024/03/29 10:20:38;;;;;;;2.70;0.60;;;;;;;17.14;46.40;99047.67;178158;1257;46102;-83
2024/03/29 10:24:41;;;;;;;9.80;0.80;;;;;;;17.19;46.16;99026.11;178951;1254;44188;-83
2024/03/29 10:28:46;;;;;;;2.80;0.50;;;;;;;17.24;45.91;99016.66;178038;1254;46159;-84
2024/03/29 10:32:49;;;;;;;1.80;0.70;;;;;;;17.40;45.92;99014.94;177976;1255;45805;-84
2024/03/29 10:36:52;;;;;;;2.00;0.80;;;;;;;17.49;46.44;99005.38;178098;1256;58310;-84
2024/03/29 10:40:56;;;;;;;4.20;0.50;;;;;;;17.73;47.56;99004.77;178258;1257;46249;-84
2024/03/29 10:45:00;;;;;;;2.00;0.70;;;;;;;17.72;46.14;98999.69;178148;1257;46015;-84
2024/03/29 10:49:03;;;;;;;1.40;0.60;;;;;;;17.74;46.02;98994.02;178800;1257;45884;-83
2024/03/29 10:53:06;;;;;;;1.50;0.30;;;;;;;17.81;46.41;98990.91;178002;1254;46465;-84
2024/03/29 10:57:19;;;;;;;0.80;0.50;;;;;;;17.98;48.02;98985.84;177951;1259;58222;-82
2024/03/29 11:01:24;;;;;;;0.80;0.80;;;;;;;18.03;45.69;98974.03;177313;1257;46093;-81
2024/03/29 11:05:29;;;;;;;1.30;0.80;;;;;;;18.04;45.26;98973.69;177559;1256;45959;-83
2024/03/29 11:09:35;;;;;;;0.40;0.30;;;;;;;17.97;45.55;98973.06;178260;1257;46115;-83
2024/03/29 11:14:02;;;;;;;0.90;0.40;;;;;;;18.16;46.65;98964.42;177742;1258;46111;-83
2024/03/29 11:18:07;;;;;;;0.90;0.70;;;;;;;18.50;47.26;98959.49;178532;1254;59376;-83
2024/03/29 11:22:11;;;;;;;1.20;0.60;;;;;;;18.58;46.83;98965.25;178057;1257;46118;-85
2024/03/29 11:26:16;;;;;;;1.60;0.90;;;;;;;18.45;46.88;98977.02;178005;1257;45974;-84
2024/03/29 11:30:19;;;;;;;1.20;0.60;;;;;;;18.39;48.25;98981.10;177490;1257;46195;-81
2024/03/29 11:34:22;;;;;;;1.70;0.40;;;;;;;18.46;48.74;98977.54;177458;1259;46406;-83
2024/03/29 11:38:33;;;;;;;1.50;0.90;;;;;;;18.58;48.80;98966.91;177731;1259;59048;-83
2024/03/29 11:42:47;;;;;;;2.10;0.40;;;;;;;18.84;49.06;98961.52;178912;1257;46575;-84
2024/03/29 11:46:51;;;;;;;3.10;1.00;;;;;;;18.96;46.50;98953.98;178405;1259;46087;-80
2024/03/29 11:50:54;;;;;;;1.80;0.40;;;;;;;19.01;46.62;98954.59;178576;1254;46022;-84
2024/03/29 11:54:58;;;;;;;6.50;1.10;;;;;;;19.18;47.73;98948.40;178589;1255;46115;-84
2024/03/29 11:59:03;;;;;;;1.70;1.00;;;;;;;19.45;48.01;98943.23;178800;1254;59661;-83
2024/03/29 12:03:07;;;;;;;2.00;0.30;;;;;;;19.55;47.21;98945.04;178682;1256;45969;-83
2024/03/29 12:07:11;;;;;;;4.10;1.40;;;;;;;19.56;46.14;98947.27;178949;1254;45977;-84
2024/03/29 12:11:14;;;;;;;1.60;0.70;;;;;;;19.66;45.50;98938.73;178262;1260;46080;-84
2024/03/29 12:15:17;;;;;;;1.40;0.80;;;;;;;19.80;46.88;98927.71;178489;1259;46051;-85
2024/03/29 12:19:24;;;;;;;0.70;0.30;;;;;;;19.89;45.61;98918.55;178033;1257;60196;-85
2024/03/29 12:23:27;;;;;;;4.90;1.10;;;;;;;19.78;45.56;98919.00;179294;1255;46013;-84
2024/03/29 12:27:35;;;;;;;5.20;0.40;;;;;;;19.74;46.08;98913.48;178136;1256;45971;-83
2024/03/29 12:31:39;;;;;;;35.00;6.10;;;;;;;19.72;46.09;98916.64;178844;1254;46058;-83
2024/03/29 12:35:47;;;;;;;9.30;3.90;;;;;;;19.72;46.25;98915.20;178921;1259;46116;-83
2024/03/29 12:39:53;;;;;;;0.90;0.80;;;;;;;19.77;46.21;98916.55;178294;1254;59355;-85
2024/03/29 12:43:57;;;;;;;1.10;0.70;;;;;;;19.75;46.00;98915.80;177657;1257;46000;-86
2024/03/29 12:48:00;;;;;;;1.70;0.70;;;;;;;19.63;45.11;98910.41;177921;1257;46352;-85
2024/03/29 12:52:05;;;;;;;3.10;1.40;;;;;;;19.57;44.98;98912.02;177630;1256;46009;-86
2024/03/29 12:56:08;;;;;;;2.80;0.70;;;;;;;19.64;45.99;98916.77;177675;1255;46204;-86
2024/03/29 13:00:12;;;;;;;1.30;0.70;;;;;;;19.62;45.56;98915.23;178239;1254;59615;-85
2024/03/29 13:04:15;;;;;;;1.30;0.60;;;;;;;19.54;46.26;98907.86;177574;1260;45998;-85
2024/03/29 13:08:18;;;;;;;5.20;0.70;;;;;;;19.64;47.71;98903.95;178826;1257;46234;-85
2024/03/29 13:12:21;;;;;;;2.10;0.60;;;;;;;19.73;47.07;98908.11;178309;1257;44826;-84
2024/03/29 13:16:24;;;;;;;1.00;0.60;;;;;;;19.86;46.93;98901.19;178778;1257;46096;-86
2024/03/29 13:20:27;;;;;;;1.80;0.90;;;;;;;19.92;46.40;98895.84;177534;1260;58359;-86
2024/03/29 13:24:30;;;;;;;1.50;0.70;;;;;;;19.96;45.98;98887.54;177894;1258;46070;-85
2024/03/29 13:28:33;;;;;;;0.70;0.30;;;;;;;20.06;46.45;98882.59;178306;1257;46009;-86
2024/03/29 13:32:40;;;;;;;2.90;0.80;;;;;;;20.05;45.05;98883.19;178167;1258;46251;-86
2024/03/29 13:36:45;;;;;;;3.90;0.60;;;;;;;20.17;47.28;98889.05;179488;1257;46122;-85
2024/03/29 13:40:48;;;;;;;4.80;2.20;;;;;;;20.32;47.09;98886.32;177637;1255;58332;-83
2024/03/29 13:44:53;;;;;;;3.20;1.60;;;;;;;20.39;47.59;98879.46;178905;1254;45918;-82
2024/03/29 13:48:56;;;;;;;1.00;0.60;;;;;;;20.39;47.58;98871.83;179069;1256;46116;-85
2024/03/29 13:52:59;;;;;;;3.60;1.40;;;;;;;20.41;46.62;98874.70;178195;1256;46105;-85
2024/03/29 13:57:03;;;;;;;1.30;0.90;;;;;;;20.24;48.38;98874.95;178224;1254;44413;-84
2024/03/29 14:01:07;;;;;;;0.70;0.50;;;;;;;19.99;46.77;98877.52;177696;1260;58719;-83
2024/03/29 14:05:10;;;;;;;1.30;0.90;;;;;;;19.88;48.42;98881.58;177924;1260;45994;-85
2024/03/29 14:09:13;;;;;;;6.50;1.70;;;;;;;19.79;48.89;98875.17;178602;1260;46095;-85
2024/03/29 14:13:16;;;;;;;6.30;1.70;;;;;;;19.83;51.56;98867.21;178881;1256;46019;-85
2024/03/29 14:17:19;;;;;;;3.40;1.30;;;;;;;19.86;51.93;98865.75;178236;1256;45989;-85
2024/03/29 14:21:23;;;;;;;1.30;0.40;;;;;;;19.98;51.87;98861.21;179170;1254;60619;-85
2024/03/29 14:25:26;;;;;;;5.80;1.50;;;;;;;20.16;52.83;98854.43;178680;1254;45930;-84
2024/03/29 14:29:29;;;;;;;1.60;0.80;;;;;;;20.14;51.36;98847.68;178110;1254;46041;-87
2024/03/29 14:33:33;;;;;;;8.10;2.10;;;;;;;20.07;51.31;98853.73;178473;1256;46419;-85
2024/03/29 14:37:36;;;;;;;1.70;0.80;;;;;;;19.74;52.87;98871.20;178866;1255;46092;-83
2024/03/29 14:41:46;;;;;;;7.30;1.20;;;;;;;19.57;54.23;98872.61;179139;1251;91010;-65
2024/03/29 14:55:26;;;;;;;26.70;10.60;;;;;;;19.08;60.06;98841.80;153761;1260;90690;-67
2024/03/29 14:59:30;;;;;;;8.20;3.70;;;;;;;18.94;64.29;98848.70;154773;1261;93333;-66
2024/03/29 15:03:33;;;;;;;8.50;2.90;;;;;;;18.73;62.82;98839.90;179870;1267;60074;-67
2024/03/29 15:07:37;;;;;;;14.80;2.50;;;;;;;18.56;62.83;98836.42;179699;1265;44639;-65
2024/03/29 15:11:40;;;;;;;5.20;2.90;;;;;;;18.46;64.58;98822.85;179741;1265;45264;-66
2024/03/29 15:21:01;;;;;;;13.60;3.90;;;;;;;18.43;69.28;98818.54;179637;1267;43529;-66
2024/03/29 15:25:07;;;;;;;8.80;4.40;;;;;;;18.53;70.43;98819.94;179676;1266;58754;-66
2024/03/29 15:29:10;;;;;;;2.30;1.80;;;;;;;18.84;68.10;98813.73;179650;1265;45991;-66
2024/03/29 15:33:14;;;;;;;4.10;1.90;;;;;;;18.94;65.95;98814.09;179724;1266;43579;-66
2024/03/29 15:37:17;;;;;;;8.00;3.20;;;;;;;18.83;66.13;98812.66;179566;1265;44626;-65
2024/03/29 15:41:49;;;;;;;7.50;3.40;;;;;;;18.58;68.25;98815.48;179735;1265;44768;-65
2024/03/29 15:45:55;;;;;;;6.50;3.10;;;;;;;18.42;69.60;98813.58;179766;1267;58486;-66
2024/03/29 15:50:03;;;;;;;8.50;4.10;;;;;;;18.23;71.15;98816.58;179840;1266;45066;-66
2024/03/29 15:54:16;;;;;;;4.30;3.00;;;;;;;18.06;72.16;98816.74;180672;1267;46056;-66
2024/03/29 15:58:25;;;;;;;9.00;3.20;;;;;;;17.96;72.56;98823.98;154188;1259;91361;-65
2024/03/29 16:02:48;;;;;;;9.20;3.20;;;;;;;17.84;71.51;98832.78;151936;1258;94824;-67
2024/03/29 16:12:25;;;;;;;7.00;1.60;;;;;;;17.57;70.09;98833.38;162944;1260;90835;-66
2024/03/29 16:16:30;;;;;;;5.60;3.00;;;;;;;17.42;71.10;98832.48;179937;1263;43592;-65
2024/03/29 16:21:00;;;;;;;4.80;2.30;;;;;;;17.26;71.41;98832.70;180824;1256;45034;-69
2024/03/29 16:25:23;;;;;;;10.90;3.10;;;;;;;17.16;70.44;98830.00;159951;1263;92782;31
2024/03/29 16:29:53;;;;;;;53.20;14.60;;;;;;;17.15;69.63;98830.46;172946;1261;90075;-66
2024/03/29 16:39:05;;;;;;;5.80;2.80;;;;;;;16.98;69.77;98829.58;144462;1266;91113;-64
2024/03/29 16:43:59;;;;;;;6.80;4.60;;;;;;;17.00;67.39;98824.56;181026;1265;43596;-64
2024/03/29 16:48:03;;;;;;;7.70;3.10;;;;;;;17.12;64.76;98822.80;181000;1267;43539;-66
2024/03/29 16:52:06;;;;;;;6.60;2.50;;;;;;;17.20;64.55;98826.41;181094;1267;58209;-64
2024/03/29 16:56:09;;;;;;;15.20;8.30;;;;;;;17.20;64.87;98824.39;181113;1267;43062;-66
2024/03/29 17:01:10;;;;;;;6.20;4.10;;;;;;;17.15;65.38;98818.80;181010;1266;43030;-67
2024/03/29 17:05:13;;;;;;;4.10;2.60;;;;;;;17.09;65.43;98831.11;181088;1265;43618;-65
2024/03/29 17:09:55;;;;;;;8.60;3.90;;;;;;;17.05;66.29;98834.98;181041;1267;43865;-67
2024/03/29 17:13:57;;;;;;;5.50;3.50;;;;;;;17.00;66.53;98830.42;181107;1267;59422;-65
2024/03/29 17:18:13;;;;;;;21.70;12.50;;;;;;;16.97;67.22;98838.35;181054;1267;43136;-66
2024/03/29 17:22:16;;;;;;;39.80;22.30;;;;;;;16.85;70.47;98845.61;181135;1266;43058;-65
2024/03/29 17:26:19;;;;;;;28.40;13.60;;;;;;;16.59;73.79;98837.68;181026;1267;43110;-66
2024/03/29 17:30:22;;;;;;;9.90;5.50;;;;;;;16.34;74.91;98827.30;181116;1266;43453;-66
2024/03/29 17:34:25;;;;;;;7.40;3.20;;;;;;;16.12;75.60;98832.50;181050;1265;57942;-65
2024/03/29 17:38:46;;;;;;;4.10;3.20;;;;;;;15.90;76.76;98836.36;180997;1267;43674;-65
2024/03/29 17:43:38;;;;;;;19.90;7.00;;;;;;;15.68;77.86;98848.89;180743;1263;87017;-87
2024/03/29 17:47:43;;;;;;;11.40;5.00;;;;;;;15.48;78.35;98842.13;180613;1264;44193;-87
2024/03/29 17:51:46;;;;;;;20.00;7.20;;;;;;;15.37;78.87;98834.50;180676;1264;43906;-88
2024/03/29 17:55:50;;;;;;;13.90;6.90;;;;;;;15.19;80.09;98825.81;180648;1264;270953;-89
2024/03/29 17:59:59;;;;;;;7.10;5.50;;;;;;;15.22;79.00;98826.41;180718;1264;43690;-89
2024/03/29 18:04:03;;;;;;;10.30;5.60;;;;;;;15.22;79.70;98831.36;180599;1264;44158;-89
2024/03/29 18:08:08;;;;;;;12.50;8.20;;;;;;;15.14;81.01;98844.88;180868;1264;46513;-89
2024/03/29 18:12:11;;;;;;;8.30;5.60;;;;;;;14.93;82.83;98843.38;180784;1262;43919;-90
2024/03/29 18:16:30;;;;;;;12.40;6.90;;;;;;;14.83;82.77;98842.96;180857;1262;58284;-89
2024/03/29 18:20:56;;;;;;;9.90;5.00;;;;;;;14.85;82.82;98849.52;180878;1264;44293;-91
2024/03/29 18:25:14;;;;;;;12.10;5.00;;;;;;;14.83;83.06;98858.02;180833;1264;44020;-91
2024/03/29 18:29:38;;;;;;;9.10;5.40;;;;;;;14.78;83.50;98865.67;180796;1264;44007;-89
2024/03/29 18:33:53;;;;;;;;;;;;;;;14.70;84.47;98879.09;180793;1262;43805;-90
2024/03/29 18:38:09;;;;;;;14.00;5.10;;;;;;;14.61;85.33;98885.37;180831;1262;60978;-90
2024/03/29 18:51:26;;;;;;;59.00;24.40;;;;;;;14.33;88.15;98884.62;143832;1260;93057;-65
2024/03/29 19:00:29;;;;;;;24.00;10.70;;;;;;;14.23;89.22;98880.79;181054;1265;58115;-67
2024/03/29 19:04:39;;;;;;;16.80;7.90;;;;;;;14.23;89.89;98883.13;181088;1269;43208;-66
2024/03/29 19:08:43;;;;;;;24.50;10.30;;;;;;;14.25;89.76;98886.63;180981;1266;44975;-67
2024/03/29 19:12:49;;;;;;;139.50;60.20;;;;;;;14.22;91.32;98898.02;180935;1267;43809;-68
2024/03/29 19:16:56;;;;;;;75.70;37.00;;;;;;;14.24;90.27;98904.45;180945;1266;43134;-67
2024/03/29 19:21:00;;;;;;;14.20;7.80;;;;;;;14.29;90.30;98906.01;180999;1265;59802;-67
2024/03/29 19:25:06;;;;;;;14.80;8.10;;;;;;;14.34;90.18;98909.59;180983;1265;44004;-66
2024/03/29 19:29:12;;;;;;;11.30;5.30;;;;;;;14.37;90.75;98908.55;180902;1265;44124;-66
2024/03/29 19:33:20;;;;;;;15.70;9.60;;;;;;;14.35;91.66;98905.80;180918;1265;43917;-67
2024/03/29 19:37:25;;;;;;;25.40;14.70;;;;;;;14.28;92.93;98903.70;180951;1267;43615;-68
2024/03/29 19:41:33;;;;;;;19.00;9.90;;;;;;;14.15;94.45;98899.22;180998;1267;58232;-67
2024/03/29 19:45:41;;;;;;;27.30;15.70;;;;;;;13.99;96.64;98898.63;180872;1265;43718;-67
2024/03/29 19:54:42;;;;;;;19.50;10.70;;;;;;;13.99;95.28;98900.23;180965;1267;44498;-65
2024/03/29 19:58:47;;;;;;;11.90;6.50;;;;;;;14.05;95.16;98907.88;180977;1266;43337;-65